createdAt,value
2023-05-16T00:01:36.917Z,88.36
2023-05-16T00:06:46.902Z,88.81
2023-05-16T00:18:15.909Z,89.00
2023-05-16T00:23:23.539Z,89.43
2023-05-16T00:28:31.122Z,89.48
2023-05-16T00:33:39.209Z,89.91
2023-05-16T00:38:46.875Z,89.92
2023-05-16T00:43:55.779Z,90.01
2023-05-16T00:49:03.694Z,89.48
2023-05-16T00:54:14.213Z,88.83
2023-05-16T00:59:23.748Z,88.11
2023-05-16T01:04:33.994Z,88.16
2023-05-16T01:09:42.463Z,88.12
2023-05-16T01:14:58.239Z,88.10
2023-05-16T01:20:15.808Z,88.37
2023-05-16T01:25:49.963Z,88.18
2023-05-16T01:30:57.988Z,88.30
2023-05-16T01:36:13.671Z,88.45
2023-05-16T01:41:26.669Z,88.94
2023-05-16T01:46:40.559Z,89.27
2023-05-16T01:51:53.618Z,89.43
2023-05-16T01:57:05.802Z,89.37
2023-05-16T02:02:13.501Z,89.76
2023-05-16T02:15:55.157Z,91.37
2023-05-16T02:21:02.938Z,91.69
2023-05-16T02:26:10.803Z,91.95
2023-05-16T02:31:28.792Z,91.27
2023-05-16T02:36:36.685Z,91.68
2023-05-16T02:41:44.158Z,92.22
2023-05-16T02:46:51.520Z,92.37
2023-05-16T02:51:59.277Z,92.77
2023-05-16T02:57:09.102Z,93.07
2023-05-16T03:02:16.542Z,93.29
2023-05-16T03:07:23.893Z,93.22
2023-05-16T03:12:31.555Z,92.70
2023-05-16T03:17:39.784Z,91.62
2023-05-16T03:22:47.208Z,91.29
2023-05-16T03:27:54.575Z,91.13
2023-05-16T03:33:01.943Z,91.27
2023-05-16T03:38:09.610Z,92.31
2023-05-16T03:43:17.174Z,93.53
2023-05-16T03:53:04.098Z,92.83
2023-05-16T03:58:12.658Z,93.41
2023-05-16T04:03:20.769Z,94.55
2023-05-16T04:08:28.965Z,94.49
2023-05-16T04:13:36.396Z,94.20
2023-05-16T04:18:44.975Z,94.75
2023-05-16T04:23:52.365Z,95.09
2023-05-16T04:38:53.001Z,94.43
2023-05-16T04:44:00.771Z,94.11
2023-05-16T04:49:08.425Z,93.82
2023-05-16T04:54:16.620Z,93.55
2023-05-16T04:59:24.128Z,93.25
2023-05-16T05:04:31.786Z,92.85
2023-05-16T05:09:39.190Z,91.95
2023-05-16T05:14:46.435Z,91.22
2023-05-16T05:19:53.969Z,90.60
2023-05-16T05:25:01.385Z,89.40
2023-05-16T05:30:10.529Z,88.06
2023-05-16T05:35:18.187Z,85.53
2023-05-16T05:40:25.595Z,84.29
2023-05-16T05:45:33.254Z,83.05
2023-05-16T05:50:40.859Z,82.78
2023-05-16T05:55:48.313Z,80.95
2023-05-16T06:00:56.915Z,79.95
2023-05-16T06:06:05.885Z,78.86
2023-05-16T06:11:15.047Z,77.91
2023-05-16T06:16:26.478Z,77.67
2023-05-16T06:21:34.611Z,77.40
2023-05-16T06:26:42.364Z,77.26
2023-05-16T06:31:50.800Z,75.93
2023-05-16T06:36:58.524Z,75.11
2023-05-16T06:42:06.595Z,73.58
2023-05-16T06:47:14.253Z,73.12
2023-05-16T06:52:22.053Z,72.97
2023-05-16T06:57:29.814Z,72.62
2023-05-16T07:02:38.244Z,72.30
2023-05-16T07:07:46.022Z,72.38
2023-05-16T07:12:53.285Z,71.28
2023-05-16T07:18:01.513Z,71.28
2023-05-16T07:23:09.628Z,71.06
2023-05-16T07:28:17.688Z,72.17
2023-05-16T07:36:16.938Z,70.92
2023-05-16T07:41:26.010Z,71.70
2023-05-16T07:46:34.671Z,70.70
2023-05-16T07:51:43.181Z,71.22
2023-05-16T07:56:50.606Z,71.34
2023-05-16T08:01:58.431Z,70.37
2023-05-16T08:07:06.345Z,69.47
2023-05-16T08:12:14.640Z,69.25
2023-05-16T08:17:22.152Z,68.28
2023-05-16T08:22:30.243Z,67.97
2023-05-16T08:27:38.208Z,66.16
2023-05-16T08:32:45.930Z,65.54
2023-05-16T08:37:53.528Z,66.40
2023-05-16T08:43:01.584Z,65.05
2023-05-16T08:48:11.479Z,65.46
2023-05-16T08:53:27.845Z,65.49
2023-05-16T08:58:35.780Z,64.51
2023-05-16T09:03:44.125Z,64.95
2023-05-16T09:08:52.030Z,64.24
2023-05-16T09:14:02.624Z,64.20
2023-05-16T09:19:14.664Z,63.22
2023-05-16T09:24:28.650Z,64.02
2023-05-16T09:29:38.551Z,63.82
2023-05-16T09:34:49.579Z,63.28
2023-05-16T09:39:57.362Z,63.45
2023-05-16T09:45:05.132Z,63.44
2023-05-16T09:50:17.072Z,62.85
2023-05-16T09:55:26.935Z,63.08
2023-05-16T10:00:36.171Z,61.98
2023-05-16T10:05:44.271Z,61.83
2023-05-16T10:10:54.629Z,61.61
2023-05-16T10:16:08.198Z,60.93
2023-05-16T10:21:19.528Z,60.81
2023-05-16T10:26:28.169Z,60.20
2023-05-16T10:31:36.842Z,59.39
2023-05-16T10:36:44.849Z,58.37
2023-05-16T10:41:52.942Z,58.32
2023-05-16T10:47:04.959Z,59.46
2023-05-16T10:52:15.978Z,58.97
2023-05-16T10:57:28.311Z,59.23
2023-05-16T11:02:42.916Z,58.40
2023-05-16T11:08:07.809Z,58.18
2023-05-16T11:13:20.287Z,57.76
2023-05-16T11:18:27.780Z,57.22
2023-05-16T11:23:35.355Z,56.81
2023-05-16T11:28:42.869Z,56.67
2023-05-16T11:33:50.488Z,57.00
2023-05-16T11:39:07.187Z,58.09
2023-05-16T11:44:16.440Z,58.47
2023-05-16T11:49:24.284Z,58.53
2023-05-16T12:05:29.022Z,59.63
2023-05-16T12:10:37.042Z,59.74
2023-05-16T12:15:44.817Z,59.99
2023-05-16T12:20:52.749Z,59.85
2023-05-16T12:26:01.950Z,59.77
2023-05-16T12:36:36.042Z,60.43
2023-05-16T12:41:45.105Z,60.76
2023-05-16T12:46:55.522Z,60.64
2023-05-16T12:52:06.237Z,60.45
2023-05-16T12:57:13.740Z,58.94
2023-05-16T13:02:23.076Z,59.52
2023-05-16T13:07:31.216Z,59.47
2023-05-16T13:12:39.697Z,58.99
2023-05-16T13:17:48.693Z,59.13
2023-05-16T13:22:56.907Z,60.16
2023-05-16T13:28:05.156Z,60.62
2023-05-16T13:33:13.572Z,61.18
2023-05-16T13:38:21.456Z,62.96
2023-05-16T13:43:29.072Z,64.54
2023-05-16T13:48:36.638Z,66.11
2023-05-16T13:53:44.515Z,67.54
2023-05-16T13:59:02.062Z,68.42
2023-05-16T14:04:11.880Z,69.18
2023-05-16T14:09:19.527Z,70.05
2023-05-16T14:14:27.106Z,70.43
2023-05-16T14:19:35.418Z,70.39
2023-05-16T14:24:43.070Z,69.85
2023-05-16T14:29:53.089Z,69.69
2023-05-16T14:35:00.645Z,69.19
2023-05-16T14:40:11.088Z,68.61
2023-05-16T14:45:19.053Z,67.96
2023-05-16T14:50:27.525Z,67.89
2023-05-16T14:55:35.586Z,67.25
2023-05-16T15:00:44.222Z,67.79
2023-05-16T15:05:53.168Z,67.77
2023-05-16T15:11:00.890Z,68.27
2023-05-16T15:16:10.355Z,66.93
2023-05-16T15:21:18.212Z,66.81
2023-05-16T15:26:25.926Z,66.88
2023-05-16T15:31:33.951Z,66.69
2023-05-16T15:36:41.383Z,66.40
2023-05-16T15:42:09.297Z,67.99
2023-05-16T15:47:19.846Z,69.35
2023-05-16T15:52:27.444Z,69.73
2023-05-16T15:57:36.923Z,70.39
2023-05-16T16:02:45.753Z,70.94
2023-05-16T16:07:53.234Z,71.51
2023-05-16T16:13:03.731Z,71.94
2023-05-16T16:18:11.955Z,72.68
2023-05-16T16:23:19.293Z,72.94
2023-05-16T16:28:29.312Z,73.30
2023-05-16T16:33:37.148Z,73.61
2023-05-16T16:38:45.051Z,74.07
2023-05-16T16:43:53.290Z,74.55
2023-05-16T16:53:29.520Z,75.18
2023-05-16T16:58:37.357Z,75.52
2023-05-16T17:03:46.799Z,75.68
2023-05-16T17:08:54.409Z,75.85
2023-05-16T17:14:06.171Z,76.40
2023-05-16T17:19:14.300Z,76.67
2023-05-16T17:24:22.465Z,77.16
2023-05-16T17:29:31.042Z,77.16
2023-05-16T17:34:38.476Z,77.49
2023-05-16T17:39:46.880Z,78.53
2023-05-16T17:44:55.549Z,78.85
2023-05-16T17:50:03.225Z,79.03
2023-05-16T17:55:12.292Z,80.34
2023-05-16T18:00:22.820Z,81.31
2023-05-16T18:05:30.232Z,81.51
2023-05-16T18:10:51.039Z,81.21
2023-05-16T18:16:00.206Z,81.43
2023-05-16T18:21:08.081Z,81.61
2023-05-16T18:26:15.879Z,82.50
2023-05-16T18:31:24.502Z,83.30
2023-05-16T18:36:32.337Z,84.16
2023-05-16T18:41:40.650Z,85.26
2023-05-16T18:52:41.183Z,85.87
2023-05-16T18:57:48.800Z,86.61
2023-05-16T19:02:56.547Z,86.72
2023-05-16T19:08:05.873Z,86.74
2023-05-16T19:13:13.691Z,87.16
2023-05-16T19:18:21.592Z,87.49
2023-05-16T19:23:29.456Z,88.22
2023-05-16T19:28:38.136Z,89.32
2023-05-16T19:33:46.828Z,90.35
2023-05-16T19:38:54.902Z,90.80
2023-05-16T19:44:02.618Z,91.21
2023-05-16T19:49:11.123Z,91.99
2023-05-16T19:54:19.632Z,92.59
2023-05-16T19:59:26.784Z,93.00
2023-05-16T20:04:34.339Z,93.31
2023-05-16T20:09:43.149Z,93.46
2023-05-16T20:14:50.627Z,93.52
2023-05-16T20:19:58.391Z,93.64
2023-05-16T20:25:06.195Z,94.31
2023-05-16T20:30:15.119Z,95.12
2023-05-16T20:35:22.953Z,95.68
2023-05-16T20:40:30.137Z,96.12
2023-05-16T20:45:37.500Z,96.84
2023-05-16T20:54:49.677Z,97.93
2023-05-16T20:59:58.839Z,98.04
2023-05-16T21:05:23.036Z,98.46
2023-05-16T21:10:32.265Z,98.97
2023-05-16T21:15:40.037Z,98.82
2023-05-16T21:20:48.338Z,99.32
2023-05-16T21:25:56.326Z,99.45
2023-05-16T21:31:03.862Z,99.36
2023-05-16T21:36:12.011Z,99.20
2023-05-16T21:41:19.468Z,98.78
2023-05-16T21:46:28.037Z,99.07
2023-05-16T21:51:35.609Z,99.09
2023-05-16T21:56:43.268Z,99.63
2023-05-16T22:01:50.725Z,99.84
2023-05-16T22:06:58.586Z,100.00
2023-05-16T22:12:08.307Z,100.00
2023-05-16T22:17:16.580Z,99.73
2023-05-16T22:22:26.493Z,99.21
2023-05-16T22:27:34.923Z,98.81
2023-05-16T22:32:42.519Z,99.21
2023-05-16T22:37:50.641Z,99.38
2023-05-16T22:42:58.054Z,99.68
2023-05-16T22:48:06.506Z,99.56
2023-05-16T22:53:14.118Z,99.42
2023-05-16T22:58:22.300Z,99.49
2023-05-16T23:03:31.915Z,99.68
2023-05-16T23:08:39.787Z,99.60
2023-05-16T23:13:47.416Z,99.82
2023-05-16T23:18:56.733Z,99.75
2023-05-16T23:24:04.690Z,99.75
2023-05-16T23:29:12.257Z,99.35
2023-05-16T23:34:21.819Z,99.05
2023-05-16T23:39:29.481Z,99.21
2023-05-16T23:44:37.332Z,99.20
2023-05-16T23:49:44.588Z,99.30
2023-05-16T23:54:52.448Z,99.36
